sensor_id;sensor_type;location;lat;lon;timestamp;P1;durP1;ratioP1;P2;durP2;ratioP2
11064;SDS011;5585;52.530;7.320;2023-06-10T00:01:55;3.80;;;3.30;;
11064;SDS011;5585;52.530;7.320;2023-06-10T00:04:23;3.70;;;2.80;;
11064;SDS011;5585;52.530;7.320;2023-06-10T00:06:49;5.13;;;3.45;;
11064;SDS011;5585;52.530;7.320;2023-06-10T00:09:16;6.10;;;3.20;;
11064;SDS011;5585;52.530;7.320;2023-06-10T00:11:43;4.45;;;3.35;;
11064;SDS011;5585;52.530;7.320;2023-06-10T00:14:10;3.72;;;3.40;;
11064;SDS011;5585;52.530;7.320;2023-06-10T00:16:37;4.18;;;3.33;;
11064;SDS011;5585;52.530;7.320;2023-06-10T00:19:05;4.03;;;3.55;;
11064;SDS011;5585;52.530;7.320;2023-06-10T00:21:33;4.63;;;3.50;;
11064;SDS011;5585;52.530;7.320;2023-06-10T00:24:02;4.55;;;3.35;;
11064;SDS011;5585;52.530;7.320;2023-06-10T00:26:30;5.22;;;3.30;;
11064;SDS011;5585;52.530;7.320;2023-06-10T00:28:56;4.25;;;3.35;;
11064;SDS011;5585;52.530;7.320;2023-06-10T00:31:23;5.80;;;3.45;;
11064;SDS011;5585;52.530;7.320;2023-06-10T00:33:51;5.47;;;3.75;;
11064;SDS011;5585;52.530;7.320;2023-06-10T00:36:20;5.00;;;3.50;;
11064;SDS011;5585;52.530;7.320;2023-06-10T00:38:47;4.65;;;3.70;;
11064;SDS011;5585;52.530;7.320;2023-06-10T00:41:13;4.28;;;3.13;;
11064;SDS011;5585;52.530;7.320;2023-06-10T00:43:40;4.88;;;3.55;;
11064;SDS011;5585;52.530;7.320;2023-06-10T00:46:06;6.53;;;3.70;;
11064;SDS011;5585;52.530;7.320;2023-06-10T00:48:33;4.03;;;3.28;;
11064;SDS011;5585;52.530;7.320;2023-06-10T00:51:00;4.72;;;3.65;;
11064;SDS011;5585;52.530;7.320;2023-06-10T00:53:28;4.20;;;3.42;;
11064;SDS011;5585;52.530;7.320;2023-06-10T00:55:55;5.35;;;3.90;;
11064;SDS011;5585;52.530;7.320;2023-06-10T00:58:22;4.35;;;3.75;;
11064;SDS011;5585;52.530;7.320;2023-06-10T01:00:49;4.53;;;3.72;;
11064;SDS011;5585;52.530;7.320;2023-06-10T01:03:16;9.23;;;3.92;;
11064;SDS011;5585;52.530;7.320;2023-06-10T01:05:43;4.88;;;3.75;;
11064;SDS011;5585;52.530;7.320;2023-06-10T01:08:13;4.05;;;3.47;;
11064;SDS011;5585;52.530;7.320;2023-06-10T01:10:47;5.03;;;3.88;;
11064;SDS011;5585;52.530;7.320;2023-06-10T01:13:16;3.90;;;3.47;;
11064;SDS011;5585;52.530;7.320;2023-06-10T01:15:43;4.95;;;4.10;;
11064;SDS011;5585;52.530;7.320;2023-06-10T01:18:10;4.85;;;3.85;;
11064;SDS011;5585;52.530;7.320;2023-06-10T01:20:40;5.78;;;4.07;;
11064;SDS011;5585;52.530;7.320;2023-06-10T01:23:09;7.15;;;4.05;;
11064;SDS011;5585;52.530;7.320;2023-06-10T01:25:37;6.25;;;3.65;;
11064;SDS011;5585;52.530;7.320;2023-06-10T01:28:04;6.85;;;3.78;;
11064;SDS011;5585;52.530;7.320;2023-06-10T01:30:36;4.68;;;3.97;;
11064;SDS011;5585;52.530;7.320;2023-06-10T01:33:05;4.78;;;3.42;;
11064;SDS011;5585;52.530;7.320;2023-06-10T01:35:33;7.60;;;4.32;;
11064;SDS011;5585;52.530;7.320;2023-06-10T01:37:59;6.72;;;4.43;;
11064;SDS011;5585;52.530;7.320;2023-06-10T01:40:28;5.82;;;4.43;;
11064;SDS011;5585;52.530;7.320;2023-06-10T01:42:56;5.00;;;3.88;;
11064;SDS011;5585;52.530;7.320;2023-06-10T01:45:22;6.60;;;3.90;;
11064;SDS011;5585;52.530;7.320;2023-06-10T01:47:49;4.72;;;4.20;;
11064;SDS011;5585;52.530;7.320;2023-06-10T01:50:16;9.07;;;4.32;;
11064;SDS011;5585;52.530;7.320;2023-06-10T01:52:42;4.68;;;3.80;;
11064;SDS011;5585;52.530;7.320;2023-06-10T01:55:09;6.97;;;4.32;;
11064;SDS011;5585;52.530;7.320;2023-06-10T01:57:37;6.00;;;3.63;;
11064;SDS011;5585;52.530;7.320;2023-06-10T02:00:04;4.45;;;3.80;;
11064;SDS011;5585;52.530;7.320;2023-06-10T02:02:33;6.78;;;4.72;;
11064;SDS011;5585;52.530;7.320;2023-06-10T02:05:00;4.97;;;3.97;;
11064;SDS011;5585;52.530;7.320;2023-06-10T02:07:27;7.32;;;4.40;;
11064;SDS011;5585;52.530;7.320;2023-06-10T02:09:54;6.38;;;4.22;;
11064;SDS011;5585;52.530;7.320;2023-06-10T02:12:21;5.10;;;4.20;;
11064;SDS011;5585;52.530;7.320;2023-06-10T02:14:49;6.32;;;4.10;;
11064;SDS011;5585;52.530;7.320;2023-06-10T02:17:15;5.07;;;4.10;;
11064;SDS011;5585;52.530;7.320;2023-06-10T02:19:42;5.72;;;4.05;;
11064;SDS011;5585;52.530;7.320;2023-06-10T02:22:09;5.88;;;4.15;;
11064;SDS011;5585;52.530;7.320;2023-06-10T02:24:36;9.45;;;4.22;;
11064;SDS011;5585;52.530;7.320;2023-06-10T02:27:03;6.97;;;4.15;;
11064;SDS011;5585;52.530;7.320;2023-06-10T02:29:33;4.95;;;3.97;;
11064;SDS011;5585;52.530;7.320;2023-06-10T02:32:03;7.00;;;4.28;;
11064;SDS011;5585;52.530;7.320;2023-06-10T02:34:29;6.07;;;3.90;;
11064;SDS011;5585;52.530;7.320;2023-06-10T02:36:56;6.05;;;4.30;;
11064;SDS011;5585;52.530;7.320;2023-06-10T02:39:23;4.60;;;3.83;;
11064;SDS011;5585;52.530;7.320;2023-06-10T02:41:49;5.53;;;4.05;;
11064;SDS011;5585;52.530;7.320;2023-06-10T02:44:17;6.78;;;4.13;;
11064;SDS011;5585;52.530;7.320;2023-06-10T02:46:44;4.75;;;3.60;;
11064;SDS011;5585;52.530;7.320;2023-06-10T02:49:12;5.13;;;3.83;;
11064;SDS011;5585;52.530;7.320;2023-06-10T02:51:38;7.15;;;4.45;;
11064;SDS011;5585;52.530;7.320;2023-06-10T02:54:05;4.68;;;3.97;;
11064;SDS011;5585;52.530;7.320;2023-06-10T02:56:32;6.60;;;4.60;;
11064;SDS011;5585;52.530;7.320;2023-06-10T02:58:58;6.95;;;4.88;;
11064;SDS011;5585;52.530;7.320;2023-06-10T03:01:25;4.90;;;4.20;;
11064;SDS011;5585;52.530;7.320;2023-06-10T03:03:52;6.18;;;3.90;;
11064;SDS011;5585;52.530;7.320;2023-06-10T03:06:22;7.30;;;4.18;;
11064;SDS011;5585;52.530;7.320;2023-06-10T03:08:51;6.55;;;3.85;;
11064;SDS011;5585;52.530;7.320;2023-06-10T03:11:18;4.45;;;3.67;;
11064;SDS011;5585;52.530;7.320;2023-06-10T03:13:45;5.20;;;3.80;;
11064;SDS011;5585;52.530;7.320;2023-06-10T03:16:12;5.03;;;4.05;;
11064;SDS011;5585;52.530;7.320;2023-06-10T03:18:39;6.63;;;3.85;;
11064;SDS011;5585;52.530;7.320;2023-06-10T03:21:06;6.07;;;4.05;;
11064;SDS011;5585;52.530;7.320;2023-06-10T03:23:35;5.60;;;3.67;;
11064;SDS011;5585;52.530;7.320;2023-06-10T03:26:02;5.82;;;3.95;;
11064;SDS011;5585;52.530;7.320;2023-06-10T03:28:30;5.35;;;4.18;;
11064;SDS011;5585;52.530;7.320;2023-06-10T03:30:56;6.30;;;4.25;;
11064;SDS011;5585;52.530;7.320;2023-06-10T03:33:23;4.70;;;3.75;;
11064;SDS011;5585;52.530;7.320;2023-06-10T03:35:49;6.10;;;3.63;;
11064;SDS011;5585;52.530;7.320;2023-06-10T03:38:16;6.63;;;4.00;;
11064;SDS011;5585;52.530;7.320;2023-06-10T03:40:44;5.30;;;4.07;;
11064;SDS011;5585;52.530;7.320;2023-06-10T03:43:11;5.53;;;3.67;;
11064;SDS011;5585;52.530;7.320;2023-06-10T03:45:37;4.47;;;3.55;;
11064;SDS011;5585;52.530;7.320;2023-06-10T03:48:04;4.25;;;3.50;;
11064;SDS011;5585;52.530;7.320;2023-06-10T03:50:31;5.90;;;3.58;;
11064;SDS011;5585;52.530;7.320;2023-06-10T03:52:58;4.75;;;3.85;;
11064;SDS011;5585;52.530;7.320;2023-06-10T03:55:24;5.57;;;3.70;;
11064;SDS011;5585;52.530;7.320;2023-06-10T03:57:52;5.35;;;3.92;;
11064;SDS011;5585;52.530;7.320;2023-06-10T04:00:19;4.80;;;3.60;;
11064;SDS011;5585;52.530;7.320;2023-06-10T04:02:47;6.45;;;4.18;;
11064;SDS011;5585;52.530;7.320;2023-06-10T04:05:15;5.70;;;4.10;;
11064;SDS011;5585;52.530;7.320;2023-06-10T04:07:41;4.72;;;3.45;;
11064;SDS011;5585;52.530;7.320;2023-06-10T04:10:09;5.32;;;3.60;;
11064;SDS011;5585;52.530;7.320;2023-06-10T04:12:36;5.13;;;3.92;;
11064;SDS011;5585;52.530;7.320;2023-06-10T04:15:04;5.57;;;3.42;;
11064;SDS011;5585;52.530;7.320;2023-06-10T04:17:31;5.97;;;4.03;;
11064;SDS011;5585;52.530;7.320;2023-06-10T04:19:57;4.90;;;3.78;;
11064;SDS011;5585;52.530;7.320;2023-06-10T04:22:24;6.60;;;3.90;;
11064;SDS011;5585;52.530;7.320;2023-06-10T04:24:51;4.38;;;3.47;;
11064;SDS011;5585;52.530;7.320;2023-06-10T04:27:18;5.20;;;3.15;;
11064;SDS011;5585;52.530;7.320;2023-06-10T04:29:44;5.22;;;3.83;;
11064;SDS011;5585;52.530;7.320;2023-06-10T04:32:12;6.53;;;4.05;;
11064;SDS011;5585;52.530;7.320;2023-06-10T04:34:39;6.68;;;3.60;;
11064;SDS011;5585;52.530;7.320;2023-06-10T04:37:05;5.45;;;4.13;;
11064;SDS011;5585;52.530;7.320;2023-06-10T04:39:32;5.03;;;3.47;;
11064;SDS011;5585;52.530;7.320;2023-06-10T04:41:59;6.18;;;3.90;;
11064;SDS011;5585;52.530;7.320;2023-06-10T04:44:25;4.95;;;3.78;;
11064;SDS011;5585;52.530;7.320;2023-06-10T04:46:52;4.55;;;3.65;;
11064;SDS011;5585;52.530;7.320;2023-06-10T04:49:21;5.28;;;3.95;;
11064;SDS011;5585;52.530;7.320;2023-06-10T04:51:48;6.13;;;4.07;;
11064;SDS011;5585;52.530;7.320;2023-06-10T04:54:15;5.60;;;3.58;;
11064;SDS011;5585;52.530;7.320;2023-06-10T04:56:41;5.15;;;3.33;;
11064;SDS011;5585;52.530;7.320;2023-06-10T04:59:08;4.30;;;3.45;;
11064;SDS011;5585;52.530;7.320;2023-06-10T05:01:34;5.38;;;3.55;;
11064;SDS011;5585;52.530;7.320;2023-06-10T05:04:01;5.13;;;3.50;;
11064;SDS011;5585;52.530;7.320;2023-06-10T05:06:29;7.03;;;3.67;;
11064;SDS011;5585;52.530;7.320;2023-06-10T05:08:55;5.20;;;3.90;;
11064;SDS011;5585;52.530;7.320;2023-06-10T05:11:22;4.40;;;3.30;;
11064;SDS011;5585;52.530;7.320;2023-06-10T05:13:49;5.10;;;3.67;;
11064;SDS011;5585;52.530;7.320;2023-06-10T05:16:15;6.75;;;3.58;;
11064;SDS011;5585;52.530;7.320;2023-06-10T05:18:42;6.43;;;3.60;;
11064;SDS011;5585;52.530;7.320;2023-06-10T05:21:09;5.78;;;3.65;;
11064;SDS011;5585;52.530;7.320;2023-06-10T05:23:38;5.32;;;3.92;;
11064;SDS011;5585;52.530;7.320;2023-06-10T05:26:04;5.85;;;3.78;;
11064;SDS011;5585;52.530;7.320;2023-06-10T05:28:31;6.13;;;3.85;;
11064;SDS011;5585;52.530;7.320;2023-06-10T05:30:58;6.15;;;3.60;;
11064;SDS011;5585;52.530;7.320;2023-06-10T05:33:24;5.03;;;3.30;;
11064;SDS011;5585;52.530;7.320;2023-06-10T05:35:51;5.78;;;3.50;;
11064;SDS011;5585;52.530;7.320;2023-06-10T05:38:17;8.52;;;4.00;;
11064;SDS011;5585;52.530;7.320;2023-06-10T05:40:45;5.82;;;3.40;;
11064;SDS011;5585;52.530;7.320;2023-06-10T05:43:12;5.28;;;3.63;;
11064;SDS011;5585;52.530;7.320;2023-06-10T05:45:39;5.53;;;3.70;;
11064;SDS011;5585;52.530;7.320;2023-06-10T05:48:05;7.43;;;4.82;;
11064;SDS011;5585;52.530;7.320;2023-06-10T05:50:33;6.05;;;4.13;;
11064;SDS011;5585;52.530;7.320;2023-06-10T05:53:03;5.47;;;3.40;;
11064;SDS011;5585;52.530;7.320;2023-06-10T05:55:32;8.77;;;4.03;;
11064;SDS011;5585;52.530;7.320;2023-06-10T05:58:00;7.68;;;3.97;;
11064;SDS011;5585;52.530;7.320;2023-06-10T06:00:26;4.35;;;3.65;;
11064;SDS011;5585;52.530;7.320;2023-06-10T06:02:54;7.45;;;3.95;;
11064;SDS011;5585;52.530;7.320;2023-06-10T06:05:22;4.82;;;3.60;;
11064;SDS011;5585;52.530;7.320;2023-06-10T06:07:48;4.45;;;3.20;;
11064;SDS011;5585;52.530;7.320;2023-06-10T06:10:16;5.43;;;3.70;;
11064;SDS011;5585;52.530;7.320;2023-06-10T06:12:43;8.45;;;3.83;;
11064;SDS011;5585;52.530;7.320;2023-06-10T06:15:11;8.68;;;3.95;;
11064;SDS011;5585;52.530;7.320;2023-06-10T06:17:38;5.07;;;3.47;;
11064;SDS011;5585;52.530;7.320;2023-06-10T06:20:05;4.40;;;3.80;;
11064;SDS011;5585;52.530;7.320;2023-06-10T06:22:32;5.93;;;3.47;;
11064;SDS011;5585;52.530;7.320;2023-06-10T06:24:58;6.75;;;3.63;;
11064;SDS011;5585;52.530;7.320;2023-06-10T06:27:25;4.20;;;3.40;;
11064;SDS011;5585;52.530;7.320;2023-06-10T06:29:51;5.05;;;3.40;;
11064;SDS011;5585;52.530;7.320;2023-06-10T06:32:20;4.30;;;3.33;;
11064;SDS011;5585;52.530;7.320;2023-06-10T06:34:47;6.88;;;4.32;;
11064;SDS011;5585;52.530;7.320;2023-06-10T06:37:19;5.90;;;4.07;;
11064;SDS011;5585;52.530;7.320;2023-06-10T06:39:45;5.32;;;4.00;;
11064;SDS011;5585;52.530;7.320;2023-06-10T06:42:12;8.50;;;4.13;;
11064;SDS011;5585;52.530;7.320;2023-06-10T06:44:39;7.40;;;4.25;;
11064;SDS011;5585;52.530;7.320;2023-06-10T06:47:06;7.68;;;4.45;;
11064;SDS011;5585;52.530;7.320;2023-06-10T06:49:34;7.40;;;4.30;;
11064;SDS011;5585;52.530;7.320;2023-06-10T06:52:00;5.22;;;3.42;;
11064;SDS011;5585;52.530;7.320;2023-06-10T06:54:27;6.53;;;4.18;;
11064;SDS011;5585;52.530;7.320;2023-06-10T06:56:54;5.45;;;3.80;;
11064;SDS011;5585;52.530;7.320;2023-06-10T06:59:20;6.95;;;4.35;;
11064;SDS011;5585;52.530;7.320;2023-06-10T07:01:47;5.13;;;3.63;;
11064;SDS011;5585;52.530;7.320;2023-06-10T07:04:14;5.03;;;3.50;;
11064;SDS011;5585;52.530;7.320;2023-06-10T07:06:42;5.93;;;3.55;;
11064;SDS011;5585;52.530;7.320;2023-06-10T07:09:09;5.25;;;3.88;;
11064;SDS011;5585;52.530;7.320;2023-06-10T07:11:36;4.30;;;3.42;;
11064;SDS011;5585;52.530;7.320;2023-06-10T07:14:02;6.55;;;4.05;;
11064;SDS011;5585;52.530;7.320;2023-06-10T07:16:29;6.53;;;4.20;;
11064;SDS011;5585;52.530;7.320;2023-06-10T07:18:58;6.20;;;4.10;;
11064;SDS011;5585;52.530;7.320;2023-06-10T07:21:25;5.85;;;3.30;;
11064;SDS011;5585;52.530;7.320;2023-06-10T07:23:55;4.78;;;3.58;;
11064;SDS011;5585;52.530;7.320;2023-06-10T07:26:21;5.05;;;3.38;;
11064;SDS011;5585;52.530;7.320;2023-06-10T07:28:48;4.95;;;3.42;;
11064;SDS011;5585;52.530;7.320;2023-06-10T07:31:14;5.53;;;3.42;;
11064;SDS011;5585;52.530;7.320;2023-06-10T07:33:41;4.93;;;3.70;;
11064;SDS011;5585;52.530;7.320;2023-06-10T07:36:08;5.15;;;3.88;;
11064;SDS011;5585;52.530;7.320;2023-06-10T07:38:35;4.95;;;3.40;;
11064;SDS011;5585;52.530;7.320;2023-06-10T07:41:03;6.03;;;3.40;;
11064;SDS011;5585;52.530;7.320;2023-06-10T07:43:29;4.60;;;3.25;;
11064;SDS011;5585;52.530;7.320;2023-06-10T07:45:56;4.55;;;3.25;;
11064;SDS011;5585;52.530;7.320;2023-06-10T07:48:23;6.65;;;3.45;;
11064;SDS011;5585;52.530;7.320;2023-06-10T07:50:49;4.28;;;3.35;;
11064;SDS011;5585;52.530;7.320;2023-06-10T07:53:16;5.38;;;3.90;;
11064;SDS011;5585;52.530;7.320;2023-06-10T07:55:42;4.32;;;3.33;;
11064;SDS011;5585;52.530;7.320;2023-06-10T07:58:10;6.78;;;3.75;;
11064;SDS011;5585;52.530;7.320;2023-06-10T08:00:36;6.55;;;3.50;;
11064;SDS011;5585;52.530;7.320;2023-06-10T08:03:03;3.97;;;3.35;;
11064;SDS011;5585;52.530;7.320;2023-06-10T08:05:30;8.05;;;3.50;;
11064;SDS011;5585;52.530;7.320;2023-06-10T08:07:56;4.07;;;3.08;;
11064;SDS011;5585;52.530;7.320;2023-06-10T08:10:23;5.10;;;2.83;;
11064;SDS011;5585;52.530;7.320;2023-06-10T08:12:50;4.13;;;2.55;;
11064;SDS011;5585;52.530;7.320;2023-06-10T08:15:18;7.90;;;3.38;;
11064;SDS011;5585;52.530;7.320;2023-06-10T08:17:44;6.97;;;3.42;;
11064;SDS011;5585;52.530;7.320;2023-06-10T08:20:11;4.38;;;3.08;;
11064;SDS011;5585;52.530;7.320;2023-06-10T08:22:37;7.13;;;3.90;;
11064;SDS011;5585;52.530;7.320;2023-06-10T08:25:07;5.30;;;3.60;;
11064;SDS011;5585;52.530;7.320;2023-06-10T08:27:34;5.63;;;3.35;;
11064;SDS011;5585;52.530;7.320;2023-06-10T08:30:01;5.13;;;3.38;;
11064;SDS011;5585;52.530;7.320;2023-06-10T08:32:29;3.40;;;2.80;;
11064;SDS011;5585;52.530;7.320;2023-06-10T08:34:56;5.60;;;3.47;;
11064;SDS011;5585;52.530;7.320;2023-06-10T08:37:22;4.07;;;3.03;;
11064;SDS011;5585;52.530;7.320;2023-06-10T08:39:49;4.35;;;3.30;;
11064;SDS011;5585;52.530;7.320;2023-06-10T08:42:17;7.18;;;3.50;;
11064;SDS011;5585;52.530;7.320;2023-06-10T08:44:47;6.20;;;3.38;;
11064;SDS011;5585;52.530;7.320;2023-06-10T08:47:17;4.30;;;3.13;;
11064;SDS011;5585;52.530;7.320;2023-06-10T08:49:45;5.38;;;3.72;;
11064;SDS011;5585;52.530;7.320;2023-06-10T08:52:14;4.45;;;3.13;;
11064;SDS011;5585;52.530;7.320;2023-06-10T08:54:42;4.10;;;3.10;;
11064;SDS011;5585;52.530;7.320;2023-06-10T08:57:09;4.00;;;2.80;;
11064;SDS011;5585;52.530;7.320;2023-06-10T08:59:36;4.53;;;3.15;;
11064;SDS011;5585;52.530;7.320;2023-06-10T09:02:03;7.75;;;3.30;;
11064;SDS011;5585;52.530;7.320;2023-06-10T09:04:30;10.05;;;3.90;;
11064;SDS011;5585;52.530;7.320;2023-06-10T09:06:58;5.53;;;3.47;;
11064;SDS011;5585;52.530;7.320;2023-06-10T09:09:25;4.78;;;3.10;;
11064;SDS011;5585;52.530;7.320;2023-06-10T09:11:53;4.72;;;3.22;;
11064;SDS011;5585;52.530;7.320;2023-06-10T09:14:19;5.20;;;2.88;;
11064;SDS011;5585;52.530;7.320;2023-06-10T09:16:46;4.85;;;3.20;;
11064;SDS011;5585;52.530;7.320;2023-06-10T09:19:13;5.47;;;3.33;;
11064;SDS011;5585;52.530;7.320;2023-06-10T09:21:40;5.80;;;3.33;;
11064;SDS011;5585;52.530;7.320;2023-06-10T09:24:08;5.07;;;3.00;;
11064;SDS011;5585;52.530;7.320;2023-06-10T09:26:35;3.60;;;3.20;;
11064;SDS011;5585;52.530;7.320;2023-06-10T09:29:04;4.05;;;3.17;;
11064;SDS011;5585;52.530;7.320;2023-06-10T09:31:32;5.20;;;3.20;;
11064;SDS011;5585;52.530;7.320;2023-06-10T09:34:04;5.55;;;3.17;;
11064;SDS011;5585;52.530;7.320;2023-06-10T09:36:32;6.00;;;3.42;;
11064;SDS011;5585;52.530;7.320;2023-06-10T09:39:00;3.78;;;2.78;;
11064;SDS011;5585;52.530;7.320;2023-06-10T09:41:33;4.55;;;3.28;;
11064;SDS011;5585;52.530;7.320;2023-06-10T09:44:00;4.85;;;3.78;;
11064;SDS011;5585;52.530;7.320;2023-06-10T09:46:30;4.15;;;3.03;;
11064;SDS011;5585;52.530;7.320;2023-06-10T09:48:57;4.70;;;3.10;;
11064;SDS011;5585;52.530;7.320;2023-06-10T09:51:23;4.63;;;3.10;;
11064;SDS011;5585;52.530;7.320;2023-06-10T09:53:50;7.32;;;4.07;;
11064;SDS011;5585;52.530;7.320;2023-06-10T09:56:17;4.47;;;3.47;;
11064;SDS011;5585;52.530;7.320;2023-06-10T09:58:45;5.50;;;2.95;;
11064;SDS011;5585;52.530;7.320;2023-06-10T10:01:12;4.90;;;3.42;;
11064;SDS011;5585;52.530;7.320;2023-06-10T10:03:45;4.68;;;2.83;;
11064;SDS011;5585;52.530;7.320;2023-06-10T10:06:12;3.42;;;2.70;;
11064;SDS011;5585;52.530;7.320;2023-06-10T10:08:39;3.05;;;2.50;;
11064;SDS011;5585;52.530;7.320;2023-06-10T10:11:06;3.63;;;2.90;;
11064;SDS011;5585;52.530;7.320;2023-06-10T10:13:33;4.63;;;3.15;;
11064;SDS011;5585;52.530;7.320;2023-06-10T10:16:01;3.50;;;2.95;;
11064;SDS011;5585;52.530;7.320;2023-06-10T10:18:30;4.15;;;3.08;;
11064;SDS011;5585;52.530;7.320;2023-06-10T10:20:58;4.30;;;2.78;;
11064;SDS011;5585;52.530;7.320;2023-06-10T10:23:32;4.20;;;3.20;;
11064;SDS011;5585;52.530;7.320;2023-06-10T10:26:02;4.50;;;3.05;;
11064;SDS011;5585;52.530;7.320;2023-06-10T10:28:33;4.38;;;2.97;;
11064;SDS011;5585;52.530;7.320;2023-06-10T10:31:06;4.00;;;2.60;;
11064;SDS011;5585;52.530;7.320;2023-06-10T10:33:36;4.03;;;2.90;;
11064;SDS011;5585;52.530;7.320;2023-06-10T10:36:04;3.92;;;2.90;;
11064;SDS011;5585;52.530;7.320;2023-06-10T10:38:32;4.90;;;3.00;;
11064;SDS011;5585;52.530;7.320;2023-06-10T10:40:59;4.28;;;3.05;;
11064;SDS011;5585;52.530;7.320;2023-06-10T10:43:27;3.60;;;2.63;;
11064;SDS011;5585;52.530;7.320;2023-06-10T10:46:00;3.60;;;3.08;;
11064;SDS011;5585;52.530;7.320;2023-06-10T10:48:28;2.72;;;2.50;;
11064;SDS011;5585;52.530;7.320;2023-06-10T10:50:59;3.63;;;2.47;;
11064;SDS011;5585;52.530;7.320;2023-06-10T10:53:26;3.20;;;2.78;;
11064;SDS011;5585;52.530;7.320;2023-06-10T10:55:59;4.50;;;2.80;;
11064;SDS011;5585;52.530;7.320;2023-06-10T10:58:26;4.78;;;2.70;;
11064;SDS011;5585;52.530;7.320;2023-06-10T11:00:52;3.13;;;2.78;;
11064;SDS011;5585;52.530;7.320;2023-06-10T11:03:19;3.30;;;2.80;;
11064;SDS011;5585;52.530;7.320;2023-06-10T11:05:48;3.22;;;2.80;;
11064;SDS011;5585;52.530;7.320;2023-06-10T11:08:15;4.65;;;2.60;;
11064;SDS011;5585;52.530;7.320;2023-06-10T11:10:42;3.45;;;2.55;;
11064;SDS011;5585;52.530;7.320;2023-06-10T11:13:18;3.63;;;2.55;;
11064;SDS011;5585;52.530;7.320;2023-06-10T11:15:45;2.63;;;2.40;;
11064;SDS011;5585;52.530;7.320;2023-06-10T11:18:13;3.70;;;2.80;;
11064;SDS011;5585;52.530;7.320;2023-06-10T11:20:54;4.53;;;2.75;;
11064;SDS011;5585;52.530;7.320;2023-06-10T11:23:25;3.72;;;2.47;;
11064;SDS011;5585;52.530;7.320;2023-06-10T11:25:54;4.22;;;2.65;;
11064;SDS011;5585;52.530;7.320;2023-06-10T11:28:36;4.78;;;2.75;;
11064;SDS011;5585;52.530;7.320;2023-06-10T11:31:02;2.97;;;2.38;;
11064;SDS011;5585;52.530;7.320;2023-06-10T11:33:29;3.53;;;2.88;;
11064;SDS011;5585;52.530;7.320;2023-06-10T11:35:57;4.78;;;3.05;;
11064;SDS011;5585;52.530;7.320;2023-06-10T11:38:24;4.93;;;2.60;;
11064;SDS011;5585;52.530;7.320;2023-06-10T11:40:51;3.03;;;2.63;;
11064;SDS011;5585;52.530;7.320;2023-06-10T11:43:17;3.28;;;2.97;;
11064;SDS011;5585;52.530;7.320;2023-06-10T11:45:44;4.68;;;2.92;;
11064;SDS011;5585;52.530;7.320;2023-06-10T11:48:12;3.65;;;2.75;;
11064;SDS011;5585;52.530;7.320;2023-06-10T11:50:38;5.15;;;3.25;;
11064;SDS011;5585;52.530;7.320;2023-06-10T11:53:09;3.38;;;2.80;;
11064;SDS011;5585;52.530;7.320;2023-06-10T11:55:42;3.65;;;3.10;;
11064;SDS011;5585;52.530;7.320;2023-06-10T11:58:12;4.55;;;3.17;;
11064;SDS011;5585;52.530;7.320;2023-06-10T12:00:43;3.65;;;2.70;;
11064;SDS011;5585;52.530;7.320;2023-06-10T12:03:10;3.00;;;2.80;;
11064;SDS011;5585;52.530;7.320;2023-06-10T12:05:36;4.28;;;3.42;;
11064;SDS011;5585;52.530;7.320;2023-06-10T12:08:10;4.90;;;3.13;;
11064;SDS011;5585;52.530;7.320;2023-06-10T12:10:40;5.00;;;3.30;;
11064;SDS011;5585;52.530;7.320;2023-06-10T12:13:08;4.15;;;3.38;;
11064;SDS011;5585;52.530;7.320;2023-06-10T12:15:34;4.13;;;3.17;;
11064;SDS011;5585;52.530;7.320;2023-06-10T12:18:01;3.97;;;3.15;;
11064;SDS011;5585;52.530;7.320;2023-06-10T12:20:28;3.20;;;2.85;;
11064;SDS011;5585;52.530;7.320;2023-06-10T12:22:57;3.78;;;3.17;;
11064;SDS011;5585;52.530;7.320;2023-06-10T12:25:25;3.67;;;3.20;;
11064;SDS011;5585;52.530;7.320;2023-06-10T12:27:53;3.58;;;2.80;;
11064;SDS011;5585;52.530;7.320;2023-06-10T12:30:20;3.33;;;3.03;;
11064;SDS011;5585;52.530;7.320;2023-06-10T12:32:47;4.93;;;3.30;;
11064;SDS011;5585;52.530;7.320;2023-06-10T12:35:16;6.47;;;3.75;;
11064;SDS011;5585;52.530;7.320;2023-06-10T12:37:43;5.13;;;3.00;;
11064;SDS011;5585;52.530;7.320;2023-06-10T12:40:25;4.82;;;3.80;;
11064;SDS011;5585;52.530;7.320;2023-06-10T12:42:53;3.70;;;2.95;;
11064;SDS011;5585;52.530;7.320;2023-06-10T12:45:25;4.40;;;3.05;;
11064;SDS011;5585;52.530;7.320;2023-06-10T12:48:03;3.53;;;3.05;;
11064;SDS011;5585;52.530;7.320;2023-06-10T12:50:30;4.10;;;3.22;;
11064;SDS011;5585;52.530;7.320;2023-06-10T12:52:59;3.33;;;3.03;;
11064;SDS011;5585;52.530;7.320;2023-06-10T12:55:25;3.38;;;3.03;;
11064;SDS011;5585;52.530;7.320;2023-06-10T12:57:54;3.97;;;3.42;;
11064;SDS011;5585;52.530;7.320;2023-06-10T13:00:21;3.50;;;2.90;;
11064;SDS011;5585;52.530;7.320;2023-06-10T13:02:50;3.47;;;3.17;;
11064;SDS011;5585;52.530;7.320;2023-06-10T13:05:17;3.83;;;3.42;;
11064;SDS011;5585;52.530;7.320;2023-06-10T13:07:44;4.85;;;2.83;;
11064;SDS011;5585;52.530;7.320;2023-06-10T13:10:10;3.67;;;2.75;;
11064;SDS011;5585;52.530;7.320;2023-06-10T13:12:38;3.65;;;3.20;;
11064;SDS011;5585;52.530;7.320;2023-06-10T13:15:07;3.42;;;3.13;;
11064;SDS011;5585;52.530;7.320;2023-06-10T13:17:34;4.82;;;3.50;;
11064;SDS011;5585;52.530;7.320;2023-06-10T13:20:01;3.00;;;2.70;;
11064;SDS011;5585;52.530;7.320;2023-06-10T13:22:29;3.25;;;2.80;;
11064;SDS011;5585;52.530;7.320;2023-06-10T13:24:57;3.70;;;3.30;;
11064;SDS011;5585;52.530;7.320;2023-06-10T13:27:24;3.72;;;3.00;;
11064;SDS011;5585;52.530;7.320;2023-06-10T13:29:51;3.78;;;2.95;;
11064;SDS011;5585;52.530;7.320;2023-06-10T13:32:19;3.08;;;2.72;;
11064;SDS011;5585;52.530;7.320;2023-06-10T13:34:45;5.50;;;3.20;;
11064;SDS011;5585;52.530;7.320;2023-06-10T13:37:12;3.15;;;2.90;;
11064;SDS011;5585;52.530;7.320;2023-06-10T13:39:39;3.40;;;2.97;;
11064;SDS011;5585;52.530;7.320;2023-06-10T13:42:06;3.90;;;3.08;;
11064;SDS011;5585;52.530;7.320;2023-06-10T13:44:33;4.55;;;3.22;;
11064;SDS011;5585;52.530;7.320;2023-06-10T13:47:01;3.55;;;2.80;;
11064;SDS011;5585;52.530;7.320;2023-06-10T13:49:29;3.00;;;2.70;;
11064;SDS011;5585;52.530;7.320;2023-06-10T13:51:56;3.65;;;3.33;;
11064;SDS011;5585;52.530;7.320;2023-06-10T13:54:23;3.40;;;3.10;;
11064;SDS011;5585;52.530;7.320;2023-06-10T13:56:49;3.80;;;3.28;;
11064;SDS011;5585;52.530;7.320;2023-06-10T13:59:16;3.60;;;2.95;;
11064;SDS011;5585;52.530;7.320;2023-06-10T14:01:45;3.13;;;2.80;;
11064;SDS011;5585;52.530;7.320;2023-06-10T14:04:11;3.78;;;2.90;;
11064;SDS011;5585;52.530;7.320;2023-06-10T14:06:39;3.60;;;3.00;;
11064;SDS011;5585;52.530;7.320;2023-06-10T14:09:06;4.60;;;3.00;;
11064;SDS011;5585;52.530;7.320;2023-06-10T14:11:33;3.72;;;3.05;;
11064;SDS011;5585;52.530;7.320;2023-06-10T14:13:59;4.25;;;2.92;;
11064;SDS011;5585;52.530;7.320;2023-06-10T14:16:26;3.38;;;3.08;;
11064;SDS011;5585;52.530;7.320;2023-06-10T14:18:53;4.13;;;3.38;;
11064;SDS011;5585;52.530;7.320;2023-06-10T14:21:20;3.08;;;2.78;;
11064;SDS011;5585;52.530;7.320;2023-06-10T14:23:48;5.10;;;3.53;;
11064;SDS011;5585;52.530;7.320;2023-06-10T14:26:17;3.20;;;2.90;;
11064;SDS011;5585;52.530;7.320;2023-06-10T14:28:44;3.70;;;3.25;;
11064;SDS011;5585;52.530;7.320;2023-06-10T14:31:10;3.45;;;3.15;;
11064;SDS011;5585;52.530;7.320;2023-06-10T14:33:37;3.33;;;3.03;;
11064;SDS011;5585;52.530;7.320;2023-06-10T14:36:04;3.30;;;3.00;;
11064;SDS011;5585;52.530;7.320;2023-06-10T14:38:31;3.72;;;2.90;;
11064;SDS011;5585;52.530;7.320;2023-06-10T14:40:59;4.65;;;3.10;;
11064;SDS011;5585;52.530;7.320;2023-06-10T14:43:26;14.93;;;6.78;;
11064;SDS011;5585;52.530;7.320;2023-06-10T14:45:52;7.38;;;4.43;;
11064;SDS011;5585;52.530;7.320;2023-06-10T14:48:21;5.90;;;4.28;;
11064;SDS011;5585;52.530;7.320;2023-06-10T14:50:50;5.63;;;4.07;;
11064;SDS011;5585;52.530;7.320;2023-06-10T14:53:19;5.68;;;3.95;;
11064;SDS011;5585;52.530;7.320;2023-06-10T14:55:46;5.93;;;3.58;;
11064;SDS011;5585;52.530;7.320;2023-06-10T14:58:15;4.93;;;3.10;;
11064;SDS011;5585;52.530;7.320;2023-06-10T15:00:42;4.63;;;3.40;;
11064;SDS011;5585;52.530;7.320;2023-06-10T15:03:08;3.67;;;3.08;;